Time;durP1;ratioP1;P1;durP2;ratioP2;P2;SDS_P1;SDS_P2;PMS_P1;PMS_P2;Temp;Humidity;BMP_temperature;BMP_pressure;BME280_temperature;BME280_humidity;BME280_pressure;Samples;Min_cycle;Max_cycle;Signal;HPM_P1;HPM_P2
2023/12/18 06:00:36;;;;;;;8.40;7.50;;;;;;;;;;1743530;28;20472;-78
2023/12/18 06:01:27;;;;;;;8.20;7.40;;;;;;;;;;1742590;28;20941;-78
2023/12/18 06:02:18;;;;;;;7.68;6.80;;;;;;;;;;1742692;28;20199;-78
2023/12/18 06:03:10;;;;;;;7.35;6.65;;;;;;;;;;1748844;28;20238;-77
2023/12/18 06:04:01;;;;;;;9.15;8.00;;;;;;;;;;1748549;28;20195;-78
2023/12/18 06:04:52;;;;;;;8.70;7.70;;;;;;;;;;1745193;28;20199;-77
2023/12/18 06:05:46;;;;;;;7.10;6.40;;;;;;;;;;1742330;28;20208;-78
2023/12/18 06:06:37;;;;;;;7.45;6.75;;;;;;;;;;1740409;28;20207;-78
2023/12/18 06:07:29;;;;;;;7.32;6.60;;;;;;;;;;1745157;28;20643;-77
2023/12/18 06:08:20;;;;;;;7.25;6.57;;;;;;;;;;1742146;28;20319;-77
2023/12/18 06:09:11;;;;;;;8.07;6.75;;;;;;;;;;1747436;28;20198;-78
2023/12/18 06:10:03;;;;;;;8.68;7.15;;;;;;;;;;1747837;28;20194;-78
2023/12/18 06:10:55;;;;;;;6.75;6.15;;;;;;;;;;1748839;28;20202;-77
2023/12/18 06:11:46;;;;;;;7.25;6.55;;;;;;;;;;1745115;28;20198;-77
2023/12/18 06:12:38;;;;;;;6.13;5.53;;;;;;;;;;1746824;28;20249;-77
2023/12/18 06:13:31;;;;;;;6.63;6.03;;;;;;;;;;1742509;28;20215;-79
2023/12/18 06:14:22;;;;;;;6.82;6.13;;;;;;;;;;1742883;28;20199;-78
2023/12/18 06:15:14;;;;;;;6.55;5.93;;;;;;;;;;1742810;28;20229;-79
2023/12/18 06:16:07;;;;;;;6.50;5.90;;;;;;;;;;1742113;28;20191;-78
2023/12/18 06:16:58;;;;;;;6.97;6.38;;;;;;;;;;1742242;28;20246;-79
2023/12/18 06:17:50;;;;;;;7.45;6.85;;;;;;;;;;1742520;28;20207;-79
2023/12/18 06:18:41;;;;;;;8.25;7.47;;;;;;;;;;1743048;28;20207;-79
2023/12/18 06:19:32;;;;;;;9.10;8.20;;;;;;;;;;1742558;28;20215;-79
2023/12/18 06:20:24;;;;;;;9.85;8.77;;;;;;;;;;1742964;28;20257;-79
2023/12/18 06:21:15;;;;;;;10.35;9.38;;;;;;;;;;1735211;28;20207;-79
2023/12/18 06:22:08;;;;;;;12.57;9.82;;;;;;;;;;1739893;28;20261;-78
2023/12/18 06:22:59;;;;;;;10.98;9.77;;;;;;;;;;1742688;28;20215;-78
2023/12/18 06:23:51;;;;;;;11.23;10.02;;;;;;;;;;1742719;28;20191;-79
2023/12/18 06:24:42;;;;;;;12.30;10.88;;;;;;;;;;1741041;28;20223;-78
2023/12/18 06:25:34;;;;;;;12.07;10.88;;;;;;;;;;1740830;28;20285;-79
2023/12/18 06:26:25;;;;;;;11.60;10.43;;;;;;;;;;1742970;28;20286;-79
2023/12/18 06:27:17;;;;;;;11.98;10.77;;;;;;;;;;1742362;28;20198;-81
2023/12/18 06:28:08;;;;;;;12.27;10.95;;;;;;;;;;1742652;28;20220;-80
2023/12/18 06:29:00;;;;;;;13.73;11.65;;;;;;;;;;1742727;28;20203;-80
2023/12/18 06:29:52;;;;;;;13.65;12.25;;;;;;;;;;1742533;28;20310;-79
2023/12/18 06:30:43;;;;;;;16.33;11.15;;;;;;;;;;1743409;28;20669;-79
2023/12/18 06:31:35;;;;;;;12.73;11.50;;;;;;;;;;1742766;28;20195;-78
2023/12/18 06:32:27;;;;;;;12.10;11.00;;;;;;;;;;1741765;28;20207;-79
2023/12/18 06:33:18;;;;;;;11.18;10.07;;;;;;;;;;1741406;28;20203;-79
2023/12/18 06:34:10;;;;;;;10.45;9.50;;;;;;;;;;1741608;28;20231;-78
2023/12/18 06:35:03;;;;;;;10.70;9.80;;;;;;;;;;1741627;28;20199;-79
2023/12/18 06:35:54;;;;;;;10.90;9.80;;;;;;;;;;1742034;28;20251;-80
2023/12/18 06:36:45;;;;;;;10.88;8.60;;;;;;;;;;1742921;28;20191;-79
2023/12/18 06:37:37;;;;;;;9.43;8.52;;;;;;;;;;1741447;28;20199;-79
2023/12/18 06:38:28;;;;;;;10.80;9.68;;;;;;;;;;1741904;28;20211;-79
2023/12/18 06:39:20;;;;;;;12.05;10.70;;;;;;;;;;1742028;28;20206;-80
2023/12/18 06:40:12;;;;;;;10.43;9.32;;;;;;;;;;1741988;28;20207;-80
2023/12/18 06:41:03;;;;;;;10.25;9.25;;;;;;;;;;1741703;28;20199;-79
2023/12/18 06:41:55;;;;;;;10.90;9.90;;;;;;;;;;1741989;28;20290;-80
2023/12/18 06:42:47;;;;;;;11.77;9.68;;;;;;;;;;1742026;28;20601;-81
2023/12/18 06:43:39;;;;;;;11.35;10.25;;;;;;;;;;1741958;28;20316;-80
2023/12/18 06:44:31;;;;;;;13.13;10.27;;;;;;;;;;1741781;28;20289;-79
2023/12/18 06:45:22;;;;;;;10.63;9.73;;;;;;;;;;1741762;28;20214;-79
2023/12/18 06:46:13;;;;;;;10.15;9.15;;;;;;;;;;1736130;28;20210;-79
2023/12/18 06:47:06;;;;;;;10.82;9.77;;;;;;;;;;1740454;28;20195;-79
2023/12/18 06:47:57;;;;;;;10.35;9.00;;;;;;;;;;1741065;28;20214;-79
2023/12/18 06:48:49;;;;;;;9.10;8.20;;;;;;;;;;1741884;28;20616;-81
2023/12/18 06:49:41;;;;;;;7.78;7.05;;;;;;;;;;1740981;28;20249;-79
2023/12/18 06:50:32;;;;;;;7.75;7.00;;;;;;;;;;1740938;28;20218;-80
2023/12/18 06:51:23;;;;;;;6.72;6.13;;;;;;;;;;1739243;28;20290;-80
2023/12/18 06:52:15;;;;;;;7.32;6.50;;;;;;;;;;1741909;28;20195;-78
2023/12/18 06:53:06;;;;;;;7.95;7.18;;;;;;;;;;1741170;28;20667;-79
2023/12/18 06:53:57;;;;;;;7.97;7.28;;;;;;;;;;1740696;28;20739;-80
2023/12/18 06:54:49;;;;;;;7.57;6.85;;;;;;;;;;1738623;28;20235;-79
2023/12/18 06:55:40;;;;;;;7.28;6.57;;;;;;;;;;1738194;28;20216;-78
2023/12/18 06:56:32;;;;;;;7.40;6.70;;;;;;;;;;1739206;28;20683;-79
2023/12/18 06:57:23;;;;;;;8.05;7.32;;;;;;;;;;1740761;28;20211;-79
2023/12/18 06:58:16;;;;;;;8.77;7.22;;;;;;;;;;1742162;28;20696;-81
2023/12/18 06:59:07;;;;;;;7.97;7.25;;;;;;;;;;1740643;28;20199;-80
2023/12/18 06:59:58;;;;;;;8.40;7.60;;;;;;;;;;1742925;28;20218;-82
2023/12/18 07:00:50;;;;;;;8.63;7.82;;;;;;;;;;1742341;28;20645;-81
2023/12/18 07:01:41;;;;;;;9.02;8.13;;;;;;;;;;1743123;28;20210;-82
2023/12/18 07:02:34;;;;;;;8.52;7.70;;;;;;;;;;1742695;28;20195;-82
2023/12/18 07:03:26;;;;;;;9.48;8.18;;;;;;;;;;1741230;28;20689;-77
2023/12/18 07:04:17;;;;;;;9.25;8.35;;;;;;;;;;1742282;28;20210;-82
2023/12/18 07:05:08;;;;;;;8.88;8.07;;;;;;;;;;1742458;28;20262;-82
2023/12/18 07:06:00;;;;;;;8.52;7.72;;;;;;;;;;1742146;28;20276;-80
2023/12/18 07:06:52;;;;;;;8.85;8.05;;;;;;;;;;1742423;28;20221;-81
2023/12/18 07:07:44;;;;;;;8.32;7.55;;;;;;;;;;1741836;28;20195;-81
2023/12/18 07:08:35;;;;;;;8.63;7.80;;;;;;;;;;1742621;28;20207;-82
2023/12/18 07:09:26;;;;;;;8.77;7.88;;;;;;;;;;1742295;28;20230;-81
2023/12/18 07:10:18;;;;;;;8.98;8.07;;;;;;;;;;1742196;28;20207;-82
2023/12/18 07:11:09;;;;;;;9.07;8.18;;;;;;;;;;1742348;28;20205;-81
2023/12/18 07:12:00;;;;;;;8.48;7.70;;;;;;;;;;1742201;28;20199;-80
2023/12/18 07:12:52;;;;;;;8.98;8.07;;;;;;;;;;1739353;28;20198;-80
2023/12/18 07:13:43;;;;;;;8.52;7.72;;;;;;;;;;1741187;28;20210;-82
2023/12/18 07:14:34;;;;;;;7.90;7.20;;;;;;;;;;1742112;28;20210;-81
2023/12/18 07:15:26;;;;;;;9.13;8.23;;;;;;;;;;1741632;28;20748;-81
2023/12/18 07:16:21;;;;;;;7.97;7.15;;;;;;;;;;1741772;28;20259;-80
2023/12/18 07:17:13;;;;;;;7.97;7.20;;;;;;;;;;1738948;28;20223;-80
2023/12/18 07:18:07;;;;;;;7.93;7.15;;;;;;;;;;1741128;28;20199;-80
2023/12/18 07:18:58;;;;;;;10.38;9.20;;;;;;;;;;1739876;28;20675;-81
2023/12/18 07:19:50;;;;;;;10.80;9.70;;;;;;;;;;1740527;28;20838;-81
2023/12/18 07:20:43;;;;;;;13.80;12.40;;;;;;;;;;1739441;28;20202;-81
2023/12/18 07:21:35;;;;;;;13.63;12.18;;;;;;;;;;1739144;28;20295;-81
2023/12/18 07:22:26;;;;;;;11.65;10.55;;;;;;;;;;1738995;28;20218;-81
2023/12/18 07:23:17;;;;;;;11.93;10.30;;;;;;;;;;1739041;28;20314;-82
2023/12/18 07:24:09;;;;;;;10.27;9.18;;;;;;;;;;1741227;28;20184;-80
2023/12/18 07:25:00;;;;;;;15.32;12.20;;;;;;;;;;1737728;28;20797;-81
2023/12/18 07:25:52;;;;;;;14.27;12.25;;;;;;;;;;1741423;28;20333;-82
2023/12/18 07:26:43;;;;;;;15.18;13.48;;;;;;;;;;1738997;28;20200;-81
2023/12/18 07:27:35;;;;;;;18.85;15.95;;;;;;;;;;1738445;28;20195;-81
2023/12/18 07:28:27;;;;;;;18.17;15.80;;;;;;;;;;1736296;28;20288;-78
2023/12/18 07:29:18;;;;;;;16.83;14.75;;;;;;;;;;1741069;28;20217;-80
2023/12/18 07:30:11;;;;;;;19.20;14.07;;;;;;;;;;1741385;28;20206;-81
2023/12/18 07:31:02;;;;;;;17.15;14.75;;;;;;;;;;1741517;28;20203;-79
2023/12/18 07:31:53;;;;;;;20.80;17.50;;;;;;;;;;1741795;28;20207;-80
2023/12/18 07:32:45;;;;;;;20.25;16.75;;;;;;;;;;1741754;28;20282;-81
2023/12/18 07:33:38;;;;;;;19.02;16.90;;;;;;;;;;1741419;28;20203;-79
2023/12/18 07:34:29;;;;;;;20.30;17.10;;;;;;;;;;1741394;28;20639;-78
2023/12/18 07:35:21;;;;;;;17.25;15.45;;;;;;;;;;1741618;28;20618;-77
2023/12/18 07:36:12;;;;;;;16.30;14.60;;;;;;;;;;1741439;28;20682;-78
2023/12/18 07:37:05;;;;;;;16.27;14.63;;;;;;;;;;1741402;28;20195;-77
2023/12/18 07:37:57;;;;;;;15.07;13.40;;;;;;;;;;1740835;28;20340;-78
2023/12/18 07:38:48;;;;;;;14.00;12.60;;;;;;;;;;1742485;28;20217;-77
2023/12/18 07:39:41;;;;;;;10.57;9.32;;;;;;;;;;1744654;28;20226;-78
2023/12/18 07:40:32;;;;;;;11.55;10.40;;;;;;;;;;1744979;28;20214;-77
2023/12/18 07:41:23;;;;;;;10.80;9.70;;;;;;;;;;1741174;28;20192;-77
2023/12/18 07:42:15;;;;;;;9.40;8.38;;;;;;;;;;1741781;28;20230;-79
2023/12/18 07:43:06;;;;;;;9.50;7.95;;;;;;;;;;1741520;28;20212;-77
2023/12/18 07:43:57;;;;;;;9.50;8.30;;;;;;;;;;1741609;28;20274;-78
2023/12/18 07:44:49;;;;;;;9.80;8.90;;;;;;;;;;1741523;28;20294;-77
2023/12/18 07:45:40;;;;;;;9.60;8.38;;;;;;;;;;1741575;28;20207;-77
2023/12/18 07:46:32;;;;;;;10.73;9.82;;;;;;;;;;1741197;28;20203;-77
2023/12/18 07:47:24;;;;;;;11.20;10.00;;;;;;;;;;1740777;28;20630;-77
2023/12/18 07:48:15;;;;;;;10.45;9.55;;;;;;;;;;1741448;28;20199;-78
2023/12/18 07:49:08;;;;;;;13.18;12.07;;;;;;;;;;1741437;28;20679;-78
2023/12/18 07:49:59;;;;;;;13.40;12.38;;;;;;;;;;1741412;28;20203;-78
2023/12/18 07:50:51;;;;;;;13.10;11.98;;;;;;;;;;1741723;28;20202;-77
2023/12/18 07:51:43;;;;;;;13.40;12.20;;;;;;;;;;1741501;28;20195;-78
2023/12/18 07:52:34;;;;;;;12.50;11.45;;;;;;;;;;1741537;28;20211;-78
2023/12/18 07:53:25;;;;;;;13.20;12.10;;;;;;;;;;1741856;28;20199;-77
2023/12/18 07:54:17;;;;;;;13.02;12.02;;;;;;;;;;1741489;28;20222;-78
2023/12/18 07:55:09;;;;;;;12.13;11.02;;;;;;;;;;1741311;28;20207;-77
2023/12/18 07:56:00;;;;;;;9.63;8.65;;;;;;;;;;1741438;28;20199;-77
2023/12/18 07:56:52;;;;;;;11.70;10.73;;;;;;;;;;1741427;28;20206;-78
2023/12/18 07:57:43;;;;;;;11.20;10.10;;;;;;;;;;1740636;28;20211;-78
2023/12/18 07:58:34;;;;;;;11.77;10.63;;;;;;;;;;1741314;28;20572;-77
2023/12/18 07:59:26;;;;;;;10.90;9.90;;;;;;;;;;1741507;28;20218;-78
2023/12/18 08:00:18;;;;;;;11.30;10.07;;;;;;;;;;1741474;28;20349;-77
2023/12/18 08:01:10;;;;;;;10.65;9.63;;;;;;;;;;1741612;28;20588;-77
2023/12/18 08:02:01;;;;;;;10.60;9.70;;;;;;;;;;1741490;28;20211;-78
2023/12/18 08:02:53;;;;;;;10.88;9.77;;;;;;;;;;1741235;28;20262;-77
2023/12/18 08:03:44;;;;;;;11.25;10.20;;;;;;;;;;1741283;28;20645;-78
2023/12/18 08:04:38;;;;;;;9.43;8.52;;;;;;;;;;1741310;28;20272;-77
2023/12/18 08:05:30;;;;;;;11.02;9.88;;;;;;;;;;1741504;28;20679;-78
2023/12/18 08:06:21;;;;;;;9.88;8.77;;;;;;;;;;1741549;28;20202;-77
2023/12/18 08:07:13;;;;;;;9.55;8.75;;;;;;;;;;1740608;28;20667;-77
2023/12/18 08:08:05;;;;;;;10.40;9.32;;;;;;;;;;1741145;28;20210;-77
2023/12/18 08:08:57;;;;;;;11.50;10.40;;;;;;;;;;1741261;28;20192;-78
2023/12/18 08:09:48;;;;;;;13.07;9.75;;;;;;;;;;1741224;28;20227;-77
2023/12/18 08:10:39;;;;;;;12.15;10.45;;;;;;;;;;1741369;28;20203;-78
2023/12/18 08:11:32;;;;;;;10.75;9.75;;;;;;;;;;1741450;28;20203;-77
2023/12/18 08:12:23;;;;;;;10.60;9.60;;;;;;;;;;1741295;28;20203;-78
2023/12/18 08:13:14;;;;;;;10.02;8.75;;;;;;;;;;1741474;28;20231;-78
2023/12/18 08:14:06;;;;;;;12.20;11.00;;;;;;;;;;1741112;28;20195;-77
2023/12/18 08:14:57;;;;;;;11.80;10.80;;;;;;;;;;1741337;28;20211;-78
2023/12/18 08:15:48;;;;;;;14.77;11.82;;;;;;;;;;1742750;28;20202;-78
2023/12/18 08:16:40;;;;;;;12.73;11.45;;;;;;;;;;1742978;28;20215;-77
2023/12/18 08:17:37;;;;;;;12.30;10.00;;;;;;;;;;1742050;28;20824;-77
2023/12/18 08:18:28;;;;;;;13.68;11.18;;;;;;;;;;1743129;28;20191;-78
2023/12/18 08:19:21;;;;;;;16.55;11.48;;;;;;;;;;1742239;28;20198;-77
2023/12/18 08:20:15;;;;;;;12.52;10.57;;;;;;;;;;1742984;28;20692;-77
2023/12/18 08:21:11;;;;;;;17.38;10.55;;;;;;;;;;1742719;28;20211;-78
2023/12/18 08:22:03;;;;;;;17.58;11.68;;;;;;;;;;1742826;28;20222;-78
2023/12/18 08:22:54;;;;;;;15.10;10.20;;;;;;;;;;1742782;28;20207;-78
2023/12/18 08:23:46;;;;;;;11.52;10.40;;;;;;;;;;1742567;28;20203;-78
2023/12/18 08:24:38;;;;;;;14.63;10.80;;;;;;;;;;1743082;28;20191;-78
2023/12/18 08:25:29;;;;;;;13.07;11.38;;;;;;;;;;1742949;28;20203;-78
2023/12/18 08:26:22;;;;;;;12.35;11.15;;;;;;;;;;1742386;28;20198;-77
2023/12/18 08:27:14;;;;;;;13.82;12.43;;;;;;;;;;1742269;28;20218;-77
2023/12/18 08:28:05;;;;;;;13.07;11.00;;;;;;;;;;1742444;28;20234;-78
2023/12/18 08:28:57;;;;;;;11.93;10.35;;;;;;;;;;1742739;28;20315;-77
2023/12/18 08:29:49;;;;;;;12.10;10.80;;;;;;;;;;1742728;28;20251;-77
2023/12/18 08:30:41;;;;;;;12.02;10.88;;;;;;;;;;1742619;28;20205;-78
2023/12/18 08:31:33;;;;;;;15.75;11.52;;;;;;;;;;1742813;28;20203;-78
2023/12/18 08:32:25;;;;;;;12.38;10.25;;;;;;;;;;1742541;28;20580;-78
2023/12/18 08:33:16;;;;;;;11.23;10.15;;;;;;;;;;1742430;28;20218;-77
2023/12/18 08:34:07;;;;;;;12.38;11.05;;;;;;;;;;1742192;28;20230;-78
2023/12/18 08:35:00;;;;;;;13.40;11.48;;;;;;;;;;1742658;28;20195;-78
2023/12/18 08:35:53;;;;;;;12.85;11.55;;;;;;;;;;1742637;28;20273;-77
2023/12/18 08:36:44;;;;;;;14.90;11.23;;;;;;;;;;1742545;28;20206;-78
2023/12/18 08:37:36;;;;;;;12.13;11.02;;;;;;;;;;1742075;28;20199;-77
2023/12/18 08:38:28;;;;;;;14.98;11.38;;;;;;;;;;1735981;28;20207;-77
2023/12/18 08:39:19;;;;;;;11.77;10.57;;;;;;;;;;1740789;28;20301;-78
2023/12/18 08:40:12;;;;;;;14.25;11.07;;;;;;;;;;1742647;28;20203;-78
2023/12/18 08:41:03;;;;;;;12.50;11.00;;;;;;;;;;1742588;28;20646;-78
2023/12/18 08:41:54;;;;;;;13.95;11.45;;;;;;;;;;1742404;28;20203;-78
2023/12/18 08:42:46;;;;;;;13.07;11.57;;;;;;;;;;1742551;28;20571;-77
2023/12/18 08:43:37;;;;;;;13.05;11.75;;;;;;;;;;1742703;28;20214;-77
2023/12/18 08:44:29;;;;;;;13.35;11.80;;;;;;;;;;1742436;28;20587;-78
2023/12/18 08:45:21;;;;;;;13.35;12.05;;;;;;;;;;1742739;28;20206;-78
2023/12/18 08:46:13;;;;;;;13.48;12.13;;;;;;;;;;1742558;28;20732;-78
2023/12/18 08:47:04;;;;;;;13.02;11.68;;;;;;;;;;1742740;28;20191;-78
2023/12/18 08:47:59;;;;;;;12.40;11.10;;;;;;;;;;1741658;28;20257;-79
2023/12/18 08:48:51;;;;;;;12.52;11.32;;;;;;;;;;1742610;28;20222;-77
2023/12/18 08:49:42;;;;;;;13.65;11.45;;;;;;;;;;1742174;28;20595;-78
2023/12/18 08:50:33;;;;;;;15.13;12.05;;;;;;;;;;1742650;28;20257;-78
2023/12/18 08:51:26;;;;;;;12.70;11.50;;;;;;;;;;1742456;28;20207;-78
2023/12/18 08:52:18;;;;;;;17.17;12.52;;;;;;;;;;1742943;28;20202;-78
2023/12/18 08:53:09;;;;;;;14.35;12.38;;;;;;;;;;1742489;28;20632;-78
2023/12/18 08:54:04;;;;;;;15.27;12.73;;;;;;;;;;1742453;28;20206;-78
2023/12/18 08:54:55;;;;;;;14.23;12.00;;;;;;;;;;1742958;28;20223;-78
2023/12/18 08:55:47;;;;;;;12.95;11.63;;;;;;;;;;1742495;28;20737;-77
2023/12/18 08:56:39;;;;;;;12.50;11.00;;;;;;;;;;1742631;28;20726;-78
2023/12/18 08:57:30;;;;;;;13.23;11.93;;;;;;;;;;1741973;28;20290;-78
2023/12/18 08:58:25;;;;;;;13.75;11.95;;;;;;;;;;1742257;28;20196;-77
2023/12/18 08:59:16;;;;;;;12.32;11.02;;;;;;;;;;1742308;28;20200;-78
2023/12/18 09:00:09;;;;;;;13.18;11.48;;;;;;;;;;1742395;28;20194;-77
2023/12/18 09:01:00;;;;;;;13.40;12.05;;;;;;;;;;1742596;28;20227;-77
2023/12/18 09:01:54;;;;;;;22.10;12.07;;;;;;;;;;1742592;28;20203;-78
2023/12/18 09:02:45;;;;;;;12.13;10.93;;;;;;;;;;1742492;28;20207;-78
2023/12/18 09:03:37;;;;;;;12.50;11.27;;;;;;;;;;1742731;28;20201;-77
2023/12/18 09:04:28;;;;;;;13.98;11.63;;;;;;;;;;1742697;28;20205;-77
2023/12/18 09:05:20;;;;;;;12.10;10.90;;;;;;;;;;1743513;28;20233;-79
2023/12/18 09:06:12;;;;;;;15.55;12.00;;;;;;;;;;1744483;28;20274;-77
2023/12/18 09:07:04;;;;;;;13.27;11.73;;;;;;;;;;1742841;28;20280;-75
2023/12/18 09:07:57;;;;;;;13.32;12.02;;;;;;;;;;1739507;28;21093;-77
2023/12/18 09:08:48;;;;;;;12.93;11.63;;;;;;;;;;1741067;28;20218;-80
2023/12/18 09:09:39;;;;;;;12.98;11.55;;;;;;;;;;1745682;28;20209;-77
2023/12/18 09:10:33;;;;;;;12.68;11.38;;;;;;;;;;1746003;28;20201;-78
2023/12/18 09:11:24;;;;;;;12.30;11.15;;;;;;;;;;1745695;28;20206;-78
2023/12/18 09:12:15;;;;;;;13.88;12.52;;;;;;;;;;1746020;28;20195;-78
2023/12/18 09:13:07;;;;;;;12.73;11.43;;;;;;;;;;1742960;28;20195;-78
2023/12/18 09:13:58;;;;;;;12.63;11.43;;;;;;;;;;1743179;28;20210;-78
2023/12/18 09:14:49;;;;;;;13.73;12.40;;;;;;;;;;1742743;28;20276;-78
2023/12/18 09:15:41;;;;;;;12.52;11.32;;;;;;;;;;1743258;28;20199;-79
2023/12/18 09:16:32;;;;;;;12.30;11.10;;;;;;;;;;1736051;28;20341;-78
2023/12/18 09:17:26;;;;;;;14.52;12.65;;;;;;;;;;1735322;28;20200;-78
2023/12/18 09:18:17;;;;;;;12.95;11.73;;;;;;;;;;1742519;28;20805;-78
2023/12/18 09:19:08;;;;;;;13.18;11.98;;;;;;;;;;1743258;28;20203;-78
2023/12/18 09:20:00;;;;;;;13.70;12.30;;;;;;;;;;1744091;28;20225;-78
2023/12/18 09:20:51;;;;;;;13.10;11.85;;;;;;;;;;1742510;28;20218;-77
2023/12/18 09:21:43;;;;;;;13.93;12.52;;;;;;;;;;1742976;28;20199;-78
2023/12/18 09:22:35;;;;;;;13.77;12.27;;;;;;;;;;1743752;28;20202;-79
2023/12/18 09:23:27;;;;;;;13.23;11.93;;;;;;;;;;1743302;28;20207;-78
2023/12/18 09:24:19;;;;;;;12.57;11.35;;;;;;;;;;1743483;28;20207;-78
2023/12/18 09:25:10;;;;;;;14.43;13.02;;;;;;;;;;1741800;28;20836;-79
2023/12/18 09:26:01;;;;;;;17.08;13.00;;;;;;;;;;1743263;28;20209;-78
2023/12/18 09:26:53;;;;;;;21.42;13.25;;;;;;;;;;1745546;28;20199;-77
2023/12/18 09:27:44;;;;;;;18.20;12.95;;;;;;;;;;1740188;28;21295;-78
2023/12/18 09:28:35;;;;;;;20.25;13.07;;;;;;;;;;1739148;28;20197;-79
2023/12/18 09:29:27;;;;;;;18.38;14.57;;;;;;;;;;1742043;28;20239;-79
2023/12/18 09:30:18;;;;;;;14.80;13.30;;;;;;;;;;1740401;28;20204;-78
2023/12/18 09:31:11;;;;;;;16.15;14.45;;;;;;;;;;1738343;28;20657;-78
2023/12/18 09:32:02;;;;;;;16.67;14.80;;;;;;;;;;1742526;28;20214;-78
2023/12/18 09:32:54;;;;;;;16.02;14.43;;;;;;;;;;1742612;28;20258;-77
2023/12/18 09:33:45;;;;;;;13.52;12.15;;;;;;;;;;1743133;28;20203;-79
2023/12/18 09:34:36;;;;;;;15.27;13.73;;;;;;;;;;1742760;28;20250;-79
2023/12/18 09:35:29;;;;;;;13.82;12.43;;;;;;;;;;1742720;28;20203;-78
2023/12/18 09:36:21;;;;;;;13.80;12.45;;;;;;;;;;1742592;28;20660;-79
2023/12/18 09:37:12;;;;;;;14.48;12.88;;;;;;;;;;1742171;28;20274;-80
2023/12/18 09:38:08;;;;;;;13.73;12.32;;;;;;;;;;1742279;28;20199;-80
2023/12/18 09:38:59;;;;;;;14.20;12.38;;;;;;;;;;1742431;28;20221;-82
2023/12/18 09:39:50;;;;;;;14.15;12.68;;;;;;;;;;1742603;28;20265;-80
2023/12/18 09:40:44;;;;;;;13.48;12.25;;;;;;;;;;1742629;28;20639;-79
2023/12/18 09:41:35;;;;;;;15.13;13.52;;;;;;;;;;1742654;28;20203;-80
2023/12/18 09:42:28;;;;;;;14.70;13.13;;;;;;;;;;1742028;28;20237;-79
2023/12/18 09:43:20;;;;;;;14.73;13.23;;;;;;;;;;1742518;28;20202;-80
2023/12/18 09:44:14;;;;;;;13.10;11.80;;;;;;;;;;1742162;28;20657;-80
2023/12/18 09:45:06;;;;;;;13.75;12.48;;;;;;;;;;1742341;28;20203;-80
2023/12/18 09:45:58;;;;;;;13.65;12.25;;;;;;;;;;1742605;28;20233;-80
2023/12/18 09:46:50;;;;;;;14.60;13.18;;;;;;;;;;1742623;28;20298;-80
2023/12/18 09:47:41;;;;;;;13.48;12.07;;;;;;;;;;1741880;28;20206;-81
2023/12/18 09:48:33;;;;;;;14.60;13.00;;;;;;;;;;1742672;28;20206;-79
2023/12/18 09:49:24;;;;;;;16.15;14.63;;;;;;;;;;1742558;28;20592;-80
2023/12/18 09:50:17;;;;;;;14.77;13.20;;;;;;;;;;1742685;28;20207;-79
2023/12/18 09:51:11;;;;;;;15.68;13.15;;;;;;;;;;1741951;28;20210;-79
2023/12/18 09:52:06;;;;;;;15.73;13.57;;;;;;;;;;1742399;28;20199;-79
2023/12/18 09:53:02;;;;;;;14.63;13.23;;;;;;;;;;1742464;28;20203;-80
2023/12/18 09:53:55;;;;;;;14.30;12.98;;;;;;;;;;1742373;28;20294;-80
2023/12/18 09:54:47;;;;;;;14.65;13.23;;;;;;;;;;1742187;28;20195;-80
2023/12/18 09:55:39;;;;;;;14.77;13.32;;;;;;;;;;1742399;28;20289;-80
2023/12/18 09:56:30;;;;;;;14.43;13.13;;;;;;;;;;1742113;28;20253;-79
2023/12/18 09:57:25;;;;;;;15.02;13.63;;;;;;;;;;1741673;28;20203;-81
2023/12/18 09:58:18;;;;;;;14.75;13.30;;;;;;;;;;1742556;28;20203;-79
2023/12/18 09:59:10;;;;;;;15.30;13.65;;;;;;;;;;1742374;28;20199;-80
2023/12/18 10:00:02;;;;;;;15.02;13.60;;;;;;;;;;1741879;28;20199;-80
2023/12/18 10:00:54;;;;;;;16.25;14.55;;;;;;;;;;1742232;28;20199;-79
2023/12/18 10:01:46;;;;;;;16.23;14.65;;;;;;;;;;1741378;28;20299;-81
2023/12/18 10:02:41;;;;;;;14.93;13.40;;;;;;;;;;1742256;28;20281;-79
2023/12/18 10:03:32;;;;;;;18.60;14.23;;;;;;;;;;1742457;28;20576;-80
2023/12/18 10:04:24;;;;;;;16.05;13.90;;;;;;;;;;1742292;28;20564;-80
2023/12/18 10:05:16;;;;;;;16.33;14.70;;;;;;;;;;1741720;28;20280;-81
2023/12/18 10:06:09;;;;;;;15.80;14.27;;;;;;;;;;1741553;28;20240;-81
2023/12/18 10:07:00;;;;;;;16.40;14.80;;;;;;;;;;1742053;28;20252;-81
2023/12/18 10:07:52;;;;;;;18.00;14.95;;;;;;;;;;1742006;28;20238;-80
2023/12/18 10:08:44;;;;;;;16.70;14.70;;;;;;;;;;1742596;28;20286;-80
2023/12/18 10:09:37;;;;;;;16.50;14.82;;;;;;;;;;1742358;28;20231;-80
2023/12/18 10:10:28;;;;;;;17.52;15.70;;;;;;;;;;1742027;28;20228;-80
2023/12/18 10:11:24;;;;;;;18.15;15.90;;;;;;;;;;1742545;28;20225;-79
2023/12/18 10:12:17;;;;;;;17.13;14.43;;;;;;;;;;1742607;28;20207;-80
2023/12/18 10:13:09;;;;;;;17.48;15.27;;;;;;;;;;1742157;28;20648;-79
2023/12/18 10:14:00;;;;;;;16.35;14.65;;;;;;;;;;1741954;28;20589;-83
2023/12/18 10:14:53;;;;;;;16.85;14.73;;;;;;;;;;1741974;28;20648;-79
2023/12/18 10:15:45;;;;;;;21.42;15.82;;;;;;;;;;1742539;28;20203;-80
2023/12/18 10:16:39;;;;;;;16.70;14.90;;;;;;;;;;1742023;28;20215;-79
2023/12/18 10:17:30;;;;;;;16.20;14.60;;;;;;;;;;1734456;28;20199;-79
2023/12/18 10:18:23;;;;;;;18.15;15.18;;;;;;;;;;1735415;28;20609;-81
2023/12/18 10:19:15;;;;;;;17.08;14.80;;;;;;;;;;1741466;28;20222;-79
2023/12/18 10:20:07;;;;;;;16.10;14.45;;;;;;;;;;1742612;28;20242;-79
2023/12/18 10:20:59;;;;;;;16.02;14.43;;;;;;;;;;1742543;28;20218;-77
2023/12/18 10:21:51;;;;;;;16.27;14.55;;;;;;;;;;1742651;28;20222;-77
2023/12/18 10:22:43;;;;;;;14.93;13.45;;;;;;;;;;1742435;28;20191;-77
2023/12/18 10:23:35;;;;;;;15.60;14.00;;;;;;;;;;1742881;28;20719;-78
2023/12/18 10:24:26;;;;;;;13.93;12.20;;;;;;;;;;1742614;28;20203;-78
2023/12/18 10:25:20;;;;;;;14.40;13.05;;;;;;;;;;1742617;28;20286;-76
2023/12/18 10:26:12;;;;;;;13.88;12.48;;;;;;;;;;1742479;28;20204;-78
2023/12/18 10:27:03;;;;;;;14.35;12.85;;;;;;;;;;1742147;28;20195;-78
2023/12/18 10:27:56;;;;;;;14.57;13.18;;;;;;;;;;1741836;28;20195;-78
2023/12/18 10:28:50;;;;;;;15.82;13.65;;;;;;;;;;1742354;28;20211;-77
2023/12/18 10:29:42;;;;;;;15.52;12.75;;;;;;;;;;1742197;28;20223;-78
2023/12/18 10:30:34;;;;;;;14.23;12.82;;;;;;;;;;1742912;28;20575;-78
2023/12/18 10:31:26;;;;;;;14.38;12.95;;;;;;;;;;1742941;28;20195;-78
2023/12/18 10:32:17;;;;;;;13.60;12.30;;;;;;;;;;1742913;28;20258;-78
2023/12/18 10:33:09;;;;;;;12.45;11.25;;;;;;;;;;1742264;28;20234;-79
2023/12/18 10:34:05;;;;;;;12.73;11.43;;;;;;;;;;1741992;28;20211;-77
2023/12/18 10:34:56;;;;;;;13.57;12.25;;;;;;;;;;1742085;28;20233;-78
2023/12/18 10:35:48;;;;;;;13.75;12.35;;;;;;;;;;1742602;28;20198;-77
2023/12/18 10:36:41;;;;;;;12.80;11.60;;;;;;;;;;1742951;28;20682;-77
2023/12/18 10:37:33;;;;;;;13.43;11.48;;;;;;;;;;1742893;28;20265;-79
2023/12/18 10:38:29;;;;;;;12.55;11.30;;;;;;;;;;1743834;28;20203;-78
2023/12/18 10:39:20;;;;;;;11.88;10.10;;;;;;;;;;1743651;28;20214;-78
2023/12/18 10:40:13;;;;;;;10.70;9.48;;;;;;;;;;1743268;28;20203;-79
2023/12/18 10:41:06;;;;;;;12.07;8.85;;;;;;;;;;1744587;28;20207;-78
2023/12/18 10:41:59;;;;;;;6.50;5.90;;;;;;;;;;1744787;28;20199;-79
2023/12/18 10:42:57;;;;;;;7.50;6.05;;;;;;;;;;1744696;28;20199;-79
2023/12/18 10:43:49;;;;;;;6.00;5.50;;;;;;;;;;1745071;28;20218;-78
2023/12/18 10:44:42;;;;;;;5.80;5.20;;;;;;;;;;1744877;28;20203;-82
2023/12/18 10:45:33;;;;;;;5.30;4.90;;;;;;;;;;1744695;28;20199;-81
2023/12/18 10:46:26;;;;;;;4.72;4.30;;;;;;;;;;1744814;28;20199;-81
2023/12/18 10:47:19;;;;;;;4.80;4.40;;;;;;;;;;1745261;28;20211;-83
2023/12/18 10:48:11;;;;;;;4.50;4.10;;;;;;;;;;1745708;28;20220;-82
2023/12/18 10:49:04;;;;;;;5.00;4.30;;;;;;;;;;1745347;28;20202;-82
2023/12/18 10:49:57;;;;;;;4.40;4.00;;;;;;;;;;1745307;28;20240;-83
2023/12/18 10:50:51;;;;;;;4.53;4.07;;;;;;;;;;1742171;28;20633;-81
2023/12/18 10:51:43;;;;;;;4.50;4.10;;;;;;;;;;1744402;28;20598;-82
2023/12/18 10:52:35;;;;;;;5.30;3.95;;;;;;;;;;1741819;28;20191;-82
2023/12/18 10:53:27;;;;;;;4.15;3.60;;;;;;;;;;1743123;28;20199;-81
2023/12/18 10:54:19;;;;;;;4.28;3.88;;;;;;;;;;1742337;28;20203;-81
2023/12/18 10:55:12;;;;;;;3.65;3.35;;;;;;;;;;1743118;28;20281;-82
2023/12/18 10:56:04;;;;;;;3.95;3.60;;;;;;;;;;1742442;28;20687;-82
2023/12/18 10:56:57;;;;;;;4.20;3.90;;;;;;;;;;1742952;28;20191;-81
2023/12/18 10:57:50;;;;;;;4.47;3.63;;;;;;;;;;1742078;28;20248;-81
2023/12/18 10:58:41;;;;;;;4.32;3.92;;;;;;;;;;1742236;28;20200;-81
2023/12/18 10:59:32;;;;;;;3.55;3.25;;;;;;;;;;1744505;28;20214;-81
2023/12/18 11:00:25;;;;;;;4.35;3.83;;;;;;;;;;1740763;28;20240;-81
2023/12/18 11:01:17;;;;;;;4.10;3.70;;;;;;;;;;1741804;28;20234;-83
2023/12/18 11:02:09;;;;;;;4.00;3.60;;;;;;;;;;1743208;28;20198;-81
2023/12/18 11:03:01;;;;;;;3.42;3.13;;;;;;;;;;1745530;28;20252;-82
2023/12/18 11:03:54;;;;;;;3.40;3.10;;;;;;;;;;1743624;28;20242;-82
2023/12/18 11:04:46;;;;;;;3.03;2.83;;;;;;;;;;1744952;28;20265;-81
2023/12/18 11:05:38;;;;;;;3.83;3.13;;;;;;;;;;1744703;28;20222;-82